createdAt,value
2022-11-26T00:04:12.247Z,70.90
2022-11-26T00:09:07.345Z,70.43
2022-11-26T00:14:01.682Z,70.43
2022-11-26T00:18:56.182Z,68.75
2022-11-26T00:23:49.442Z,72.80
2022-11-26T00:28:50.458Z,66.57
2022-11-26T00:33:44.180Z,66.03
2022-11-26T00:38:37.981Z,67.22
2022-11-26T00:43:32.431Z,69.00
2022-11-26T00:48:25.528Z,68.28
2022-11-26T00:53:22.832Z,64.20
2022-11-26T00:58:47.280Z,65.13
2022-11-26T01:03:43.529Z,69.55
2022-11-26T01:08:36.601Z,72.50
2022-11-26T01:18:23.984Z,69.03
2022-11-26T01:23:19.393Z,77.10
2022-11-26T01:28:15.712Z,124.90
2022-11-26T01:33:09.541Z,135.55
2022-11-26T01:38:02.648Z,132.50
2022-11-26T01:43:14.148Z,132.70
2022-11-26T01:48:34.454Z,136.32
2022-11-26T01:54:00.244Z,181.55
2022-11-26T01:58:57.701Z,162.77
2022-11-26T02:04:00.960Z,168.48
2022-11-26T02:08:55.090Z,206.30
2022-11-26T02:13:52.174Z,174.90
2022-11-26T02:18:52.462Z,177.35
2022-11-26T02:24:00.729Z,179.05
2022-11-26T02:29:15.354Z,76.80
2022-11-26T02:34:19.783Z,112.38
2022-11-26T02:39:15.089Z,74.88
2022-11-26T02:44:09.103Z,93.22
2022-11-26T02:58:51.804Z,72.40
2022-11-26T03:03:49.891Z,70.90
2022-11-26T03:08:49.497Z,68.05
2022-11-26T03:13:43.204Z,67.53
2022-11-26T03:23:31.383Z,64.22
2022-11-26T03:28:24.957Z,67.97
2022-11-26T03:38:12.346Z,67.87
2022-11-26T03:43:05.811Z,66.82
2022-11-26T03:48:00.160Z,68.10
2022-11-26T03:52:53.965Z,68.47
2022-11-26T03:57:48.276Z,71.00
2022-11-26T04:02:42.516Z,66.13
2022-11-26T04:07:36.072Z,67.13
2022-11-26T04:12:32.179Z,69.05
2022-11-26T04:17:27.841Z,71.88
2022-11-26T04:22:22.916Z,69.30
2022-11-26T04:27:16.253Z,70.57
2022-11-26T04:37:03.874Z,66.03
2022-11-26T04:46:51.166Z,100.70
2022-11-26T04:51:44.709Z,74.47
2022-11-26T04:56:37.550Z,113.13
2022-11-26T05:01:31.362Z,83.57
2022-11-26T05:06:25.933Z,87.65
2022-11-26T05:11:20.224Z,84.32
2022-11-26T05:16:14.233Z,109.57
2022-11-26T05:21:09.800Z,112.22
2022-11-26T05:26:04.532Z,77.43
2022-11-26T05:31:00.862Z,67.78
2022-11-26T05:35:54.591Z,65.05
2022-11-26T05:40:48.381Z,55.60
2022-11-26T05:45:41.185Z,57.40
2022-11-26T05:50:34.939Z,56.80
2022-11-26T05:55:28.780Z,56.38
2022-11-26T06:00:23.857Z,56.83
2022-11-26T06:05:18.210Z,55.88
2022-11-26T06:10:13.188Z,56.45
2022-11-26T06:15:07.977Z,55.45
2022-11-26T06:20:00.828Z,56.97
2022-11-26T06:24:54.634Z,58.83
2022-11-26T06:34:43.842Z,59.78
2022-11-26T06:39:38.281Z,59.75
2022-11-26T06:44:32.282Z,61.50
2022-11-26T06:49:25.917Z,63.72
2022-11-26T06:54:19.918Z,65.78
2022-11-26T06:59:13.529Z,64.93
2022-11-26T07:04:07.668Z,65.55
2022-11-26T07:09:05.652Z,66.60
2022-11-26T07:13:58.832Z,64.55
2022-11-26T07:18:59.209Z,66.38
2022-11-26T07:23:55.902Z,67.57
2022-11-26T07:28:49.770Z,71.78
2022-11-26T07:33:44.438Z,81.25
2022-11-26T07:38:38.704Z,74.20
2022-11-26T07:43:32.697Z,77.80
2022-11-26T07:48:27.022Z,76.35
2022-11-26T07:53:20.989Z,82.20
2022-11-26T07:58:15.358Z,82.75
2022-11-26T08:03:09.577Z,88.40
2022-11-26T08:08:04.982Z,82.20
2022-11-26T08:12:59.377Z,80.50
2022-11-26T08:17:59.519Z,81.18
2022-11-26T08:22:53.622Z,76.28
2022-11-26T08:27:47.853Z,72.30
2022-11-26T08:32:41.504Z,78.70
2022-11-26T08:42:29.039Z,70.30
2022-11-26T08:47:23.250Z,71.03
2022-11-26T08:52:17.368Z,70.90
2022-11-26T08:57:11.875Z,74.68
2022-11-26T09:02:05.947Z,72.88
2022-11-26T09:06:59.947Z,70.72
2022-11-26T09:11:58.833Z,68.35
2022-11-26T09:16:56.384Z,66.40
2022-11-26T09:21:49.638Z,64.82
2022-11-26T09:26:43.350Z,65.88
2022-11-26T09:31:46.009Z,65.00
2022-11-26T09:36:49.519Z,62.58
2022-11-26T09:41:54.844Z,57.13
2022-11-26T09:47:12.205Z,57.67
2022-11-26T09:52:09.410Z,64.13
2022-11-26T09:57:24.711Z,68.18
2022-11-26T10:02:22.547Z,51.40
2022-11-26T10:07:44.881Z,49.33
2022-11-26T10:13:03.011Z,47.97
2022-11-26T10:18:05.892Z,55.15
2022-11-26T10:23:13.966Z,49.58
2022-11-26T10:28:28.958Z,47.47
2022-11-26T10:33:29.753Z,48.47
2022-11-26T10:38:24.305Z,47.63
2022-11-26T10:43:19.898Z,68.75
2022-11-26T10:48:32.662Z,50.33
2022-11-26T10:53:28.013Z,48.20
2022-11-26T10:58:24.942Z,48.00
2022-11-26T11:03:51.856Z,49.67
2022-11-26T11:08:39.410Z,45.70
2022-11-26T11:13:45.404Z,48.50
2022-11-26T11:18:39.161Z,46.75
2022-11-26T11:24:06.389Z,46.00
2022-11-26T11:28:49.719Z,41.47
2022-11-26T11:33:43.461Z,44.65
2022-11-26T11:39:06.864Z,39.85
2022-11-26T11:44:25.956Z,39.00
2022-11-26T11:49:36.292Z,42.22
2022-11-26T11:54:45.516Z,40.40
2022-11-26T12:00:13.742Z,49.80
2022-11-26T12:05:28.450Z,38.72
2022-11-26T12:10:48.515Z,39.60
2022-11-26T12:15:49.474Z,37.72
2022-11-26T12:20:46.142Z,49.03
2022-11-26T12:25:40.531Z,39.13
2022-11-26T12:30:54.892Z,38.70
2022-11-26T12:36:07.637Z,29.00
2022-11-26T12:41:06.639Z,27.50
2022-11-26T12:46:03.353Z,29.05
2022-11-26T12:51:00.173Z,24.58
2022-11-26T12:55:57.354Z,30.17
2022-11-26T13:00:57.551Z,30.52
2022-11-26T13:06:24.383Z,28.30
2022-11-26T13:11:35.450Z,27.05
2022-11-26T13:16:46.232Z,21.60
2022-11-26T13:22:11.859Z,23.25
2022-11-26T13:27:23.652Z,26.20
2022-11-26T13:32:34.737Z,31.25
2022-11-26T13:37:30.541Z,42.97
2022-11-26T13:42:38.715Z,45.03
2022-11-26T13:47:40.671Z,43.28
2022-11-26T13:53:06.309Z,46.55
2022-11-26T13:58:05.401Z,46.83
2022-11-26T14:03:01.391Z,46.83
2022-11-26T14:08:33.349Z,47.03
2022-11-26T14:13:28.418Z,45.45
2022-11-26T14:18:54.049Z,43.90
2022-11-26T14:24:01.693Z,47.38
2022-11-26T14:29:29.782Z,45.53
2022-11-26T14:34:40.114Z,47.67
2022-11-26T14:39:34.469Z,45.58
2022-11-26T14:44:28.522Z,47.95
2022-11-26T14:49:21.666Z,46.17
2022-11-26T14:54:21.191Z,49.17
2022-11-26T14:59:18.845Z,49.67
2022-11-26T15:04:39.333Z,50.75
2022-11-26T15:09:33.378Z,51.92
2022-11-26T15:14:48.623Z,50.38
2022-11-26T15:19:43.458Z,50.25
2022-11-26T15:24:37.437Z,50.53
2022-11-26T15:29:35.356Z,49.42
2022-11-26T15:34:30.333Z,51.15
2022-11-26T15:39:51.779Z,50.55
2022-11-26T15:44:49.685Z,52.50
2022-11-26T15:49:45.165Z,53.63
2022-11-26T15:55:10.793Z,54.28
2022-11-26T15:59:58.658Z,55.17
2022-11-26T16:04:53.940Z,54.97
2022-11-26T16:09:48.680Z,57.97
2022-11-26T16:14:42.128Z,54.95
2022-11-26T16:24:34.292Z,63.67
2022-11-26T16:29:29.001Z,64.38
2022-11-26T16:34:23.082Z,67.03
2022-11-26T16:44:10.314Z,65.78
2022-11-26T16:49:04.797Z,67.45
2022-11-26T16:53:59.172Z,68.75
2022-11-26T16:58:52.438Z,78.93
2022-11-26T17:03:46.458Z,74.22
2022-11-26T17:08:43.874Z,80.30
2022-11-26T17:13:41.262Z,66.13
2022-11-26T17:18:35.063Z,64.75
2022-11-26T17:23:29.379Z,67.63
2022-11-26T17:28:24.087Z,67.22
2022-11-26T17:33:17.586Z,71.15
2022-11-26T17:38:19.544Z,69.05
2022-11-26T17:43:14.065Z,76.60
2022-11-26T17:48:08.462Z,61.88
2022-11-26T17:53:02.190Z,54.55
2022-11-26T17:57:59.141Z,57.25
2022-11-26T18:02:53.632Z,77.07
2022-11-26T18:07:47.459Z,80.22
2022-11-26T18:12:40.895Z,75.70
2022-11-26T18:17:34.949Z,76.45
2022-11-26T18:22:30.085Z,85.18
2022-11-26T18:27:28.830Z,75.38
2022-11-26T18:32:22.912Z,80.32
2022-11-26T18:47:23.165Z,71.37
2022-11-26T18:52:16.797Z,67.00
2022-11-26T19:02:04.752Z,56.65
2022-11-26T19:06:59.278Z,52.83
2022-11-26T19:11:55.172Z,55.83
2022-11-26T19:16:50.389Z,54.78
2022-11-26T19:21:48.398Z,53.63
2022-11-26T19:26:42.750Z,48.47
2022-11-26T19:31:39.986Z,47.63
2022-11-26T19:36:34.458Z,48.72
2022-11-26T19:41:28.435Z,53.53
2022-11-26T19:46:23.876Z,53.28
2022-11-26T19:51:18.994Z,55.00
2022-11-26T19:56:17.797Z,66.93
2022-11-26T20:01:14.534Z,86.78
2022-11-26T20:06:14.005Z,82.15
2022-11-26T20:11:08.868Z,71.82
2022-11-26T20:16:06.612Z,71.75
2022-11-26T20:21:01.332Z,76.25
2022-11-26T20:25:55.122Z,70.60
2022-11-26T20:30:49.363Z,65.22
2022-11-26T20:35:43.314Z,57.95
2022-11-26T20:40:39.505Z,54.90
2022-11-26T20:45:32.962Z,50.03
2022-11-26T20:50:26.630Z,49.38
2022-11-26T20:55:22.492Z,45.47
2022-11-26T21:00:17.680Z,48.65
2022-11-26T21:05:13.527Z,50.55
2022-11-26T21:10:10.183Z,63.15
2022-11-26T21:15:04.003Z,44.55
2022-11-26T21:19:58.199Z,39.20
2022-11-26T21:24:51.580Z,42.00
2022-11-26T21:29:46.898Z,42.97
2022-11-26T21:34:40.746Z,48.85
2022-11-26T21:39:33.921Z,52.65
2022-11-26T21:49:22.352Z,45.80
2022-11-26T21:54:16.891Z,42.75
2022-11-26T21:59:10.359Z,48.08
2022-11-26T22:04:10.618Z,43.70
2022-11-26T22:09:05.396Z,48.80
2022-11-26T22:14:00.040Z,44.92
2022-11-26T22:18:53.972Z,45.75
2022-11-26T22:23:49.050Z,45.28
2022-11-26T22:28:42.558Z,43.70
2022-11-26T22:38:30.494Z,40.83
2022-11-26T22:43:23.344Z,41.42
2022-11-26T22:48:16.991Z,45.30
2022-11-26T22:53:11.861Z,41.92
2022-11-26T22:58:06.357Z,37.20
2022-11-26T23:03:00.786Z,33.08
2022-11-26T23:07:54.498Z,30.67
2022-11-26T23:17:41.280Z,28.10
2022-11-26T23:22:35.236Z,27.80
2022-11-26T23:27:29.217Z,28.40
2022-11-26T23:32:26.137Z,29.02
2022-11-26T23:37:23.137Z,32.60
2022-11-26T23:47:10.489Z,29.08
2022-11-26T23:52:04.731Z,28.02
2022-11-26T23:56:58.880Z,27.50
